sensor_id;sensor_type;location;lat;lon;timestamp;temperature;humidity
62555;DHT22;48610;52.144;8.624;2023-07-29T00:01:23;19.70;99.90
62555;DHT22;48610;52.144;8.624;2023-07-29T00:04:24;19.70;99.90
62555;DHT22;48610;52.144;8.624;2023-07-29T00:07:24;19.80;99.90
62555;DHT22;48610;52.144;8.624;2023-07-29T00:10:26;19.80;99.90
62555;DHT22;48610;52.144;8.624;2023-07-29T00:13:26;19.70;99.90
62555;DHT22;48610;52.144;8.624;2023-07-29T00:16:27;19.70;99.90
62555;DHT22;48610;52.144;8.624;2023-07-29T00:19:28;19.70;99.90
62555;DHT22;48610;52.144;8.624;2023-07-29T00:22:29;19.70;99.90
62555;DHT22;48610;52.144;8.624;2023-07-29T00:25:29;19.70;99.90
62555;DHT22;48610;52.144;8.624;2023-07-29T00:28:30;19.70;99.90
62555;DHT22;48610;52.144;8.624;2023-07-29T00:31:31;19.70;99.90
62555;DHT22;48610;52.144;8.624;2023-07-29T00:34:32;19.70;99.90
62555;DHT22;48610;52.144;8.624;2023-07-29T00:37:33;19.70;99.90
62555;DHT22;48610;52.144;8.624;2023-07-29T00:40:35;19.60;99.90
62555;DHT22;48610;52.144;8.624;2023-07-29T00:43:36;19.60;99.90
62555;DHT22;48610;52.144;8.624;2023-07-29T00:46:38;19.50;99.90
62555;DHT22;48610;52.144;8.624;2023-07-29T00:49:39;19.40;99.90
62555;DHT22;48610;52.144;8.624;2023-07-29T00:52:40;19.50;99.90
62555;DHT22;48610;52.144;8.624;2023-07-29T00:55:41;19.40;99.90
62555;DHT22;48610;52.144;8.624;2023-07-29T00:58:42;19.40;99.90
62555;DHT22;48610;52.144;8.624;2023-07-29T01:01:43;19.40;99.90
62555;DHT22;48610;52.144;8.624;2023-07-29T01:04:44;19.40;99.90
62555;DHT22;48610;52.144;8.624;2023-07-29T01:08:08;19.40;99.90
62555;DHT22;48610;52.144;8.624;2023-07-29T01:14:32;19.60;99.90
62555;DHT22;48610;52.144;8.624;2023-07-29T01:17:42;19.60;99.90
62555;DHT22;48610;52.144;8.624;2023-07-29T01:20:43;19.70;99.90
62555;DHT22;48610;52.144;8.624;2023-07-29T01:23:45;19.80;99.90
62555;DHT22;48610;52.144;8.624;2023-07-29T01:26:45;19.80;99.90
62555;DHT22;48610;52.144;8.624;2023-07-29T01:29:46;19.70;99.90
62555;DHT22;48610;52.144;8.624;2023-07-29T01:32:55;19.70;99.90
62555;DHT22;48610;52.144;8.624;2023-07-29T01:36:06;19.70;99.90
62555;DHT22;48610;52.144;8.624;2023-07-29T01:39:09;19.80;99.90
62555;DHT22;48610;52.144;8.624;2023-07-29T01:42:12;19.70;99.90
62555;DHT22;48610;52.144;8.624;2023-07-29T01:45:12;19.80;99.90
62555;DHT22;48610;52.144;8.624;2023-07-29T01:48:13;19.80;99.90
62555;DHT22;48610;52.144;8.624;2023-07-29T01:51:14;19.90;99.90
62555;DHT22;48610;52.144;8.624;2023-07-29T01:54:14;19.80;99.90
62555;DHT22;48610;52.144;8.624;2023-07-29T01:57:15;19.80;99.90
62555;DHT22;48610;52.144;8.624;2023-07-29T02:00:16;19.80;99.90
62555;DHT22;48610;52.144;8.624;2023-07-29T02:03:16;19.80;99.90
62555;DHT22;48610;52.144;8.624;2023-07-29T02:06:17;19.80;99.90
62555;DHT22;48610;52.144;8.624;2023-07-29T02:09:18;19.80;99.90
62555;DHT22;48610;52.144;8.624;2023-07-29T02:12:18;19.70;99.90
62555;DHT22;48610;52.144;8.624;2023-07-29T02:15:19;19.50;99.90
62555;DHT22;48610;52.144;8.624;2023-07-29T02:18:19;19.40;99.90
62555;DHT22;48610;52.144;8.624;2023-07-29T02:21:20;19.40;99.90
62555;DHT22;48610;52.144;8.624;2023-07-29T02:24:20;19.40;99.90
62555;DHT22;48610;52.144;8.624;2023-07-29T02:27:21;19.60;99.90
62555;DHT22;48610;52.144;8.624;2023-07-29T02:30:22;19.60;99.90
62555;DHT22;48610;52.144;8.624;2023-07-29T02:33:22;19.70;99.90
62555;DHT22;48610;52.144;8.624;2023-07-29T02:36:24;19.70;99.90
62555;DHT22;48610;52.144;8.624;2023-07-29T02:39:24;19.80;99.90
62555;DHT22;48610;52.144;8.624;2023-07-29T02:42:25;19.80;99.90
62555;DHT22;48610;52.144;8.624;2023-07-29T02:45:26;19.80;99.90
62555;DHT22;48610;52.144;8.624;2023-07-29T02:48:26;19.70;99.90
62555;DHT22;48610;52.144;8.624;2023-07-29T02:51:29;19.70;99.90
62555;DHT22;48610;52.144;8.624;2023-07-29T02:54:30;19.70;99.90
62555;DHT22;48610;52.144;8.624;2023-07-29T02:57:30;19.60;99.90
62555;DHT22;48610;52.144;8.624;2023-07-29T03:00:32;19.40;99.90
62555;DHT22;48610;52.144;8.624;2023-07-29T03:03:33;19.30;99.90
62555;DHT22;48610;52.144;8.624;2023-07-29T03:06:34;19.30;99.90
62555;DHT22;48610;52.144;8.624;2023-07-29T03:09:34;19.40;99.90
62555;DHT22;48610;52.144;8.624;2023-07-29T03:12:35;19.30;99.90
62555;DHT22;48610;52.144;8.624;2023-07-29T03:15:35;19.10;99.90
62555;DHT22;48610;52.144;8.624;2023-07-29T03:18:36;19.10;99.90
62555;DHT22;48610;52.144;8.624;2023-07-29T03:21:37;19.30;99.90
62555;DHT22;48610;52.144;8.624;2023-07-29T03:24:38;19.40;99.90
62555;DHT22;48610;52.144;8.624;2023-07-29T03:27:39;19.40;99.90
62555;DHT22;48610;52.144;8.624;2023-07-29T03:30:40;19.50;99.90
62555;DHT22;48610;52.144;8.624;2023-07-29T03:33:41;19.50;99.90
62555;DHT22;48610;52.144;8.624;2023-07-29T03:36:41;19.50;99.90
62555;DHT22;48610;52.144;8.624;2023-07-29T03:39:42;19.30;99.90
62555;DHT22;48610;52.144;8.624;2023-07-29T03:42:43;19.20;99.90
62555;DHT22;48610;52.144;8.624;2023-07-29T03:45:44;19.00;99.90
62555;DHT22;48610;52.144;8.624;2023-07-29T03:48:44;18.80;99.90
62555;DHT22;48610;52.144;8.624;2023-07-29T03:51:45;19.00;99.90
62555;DHT22;48610;52.144;8.624;2023-07-29T03:54:46;18.90;99.90
62555;DHT22;48610;52.144;8.624;2023-07-29T03:57:46;19.00;99.90
62555;DHT22;48610;52.144;8.624;2023-07-29T04:00:47;19.00;99.90
62555;DHT22;48610;52.144;8.624;2023-07-29T04:03:48;19.00;99.90
62555;DHT22;48610;52.144;8.624;2023-07-29T04:06:48;19.00;99.90
62555;DHT22;48610;52.144;8.624;2023-07-29T04:09:49;19.10;99.90
62555;DHT22;48610;52.144;8.624;2023-07-29T04:12:50;19.00;99.90
62555;DHT22;48610;52.144;8.624;2023-07-29T04:15:50;19.20;99.90
62555;DHT22;48610;52.144;8.624;2023-07-29T04:18:51;19.20;99.90
62555;DHT22;48610;52.144;8.624;2023-07-29T04:21:51;19.00;99.90
62555;DHT22;48610;52.144;8.624;2023-07-29T04:24:52;19.00;99.90
62555;DHT22;48610;52.144;8.624;2023-07-29T04:27:53;19.00;99.90
62555;DHT22;48610;52.144;8.624;2023-07-29T04:30:54;19.20;99.90
62555;DHT22;48610;52.144;8.624;2023-07-29T04:33:55;19.30;99.90
62555;DHT22;48610;52.144;8.624;2023-07-29T04:36:56;19.20;99.90
62555;DHT22;48610;52.144;8.624;2023-07-29T04:39:56;19.30;99.90
62555;DHT22;48610;52.144;8.624;2023-07-29T04:42:57;19.40;99.90
62555;DHT22;48610;52.144;8.624;2023-07-29T04:45:58;19.30;99.90
62555;DHT22;48610;52.144;8.624;2023-07-29T04:48:58;19.20;99.90
62555;DHT22;48610;52.144;8.624;2023-07-29T04:51:59;19.30;99.90
62555;DHT22;48610;52.144;8.624;2023-07-29T04:55:00;19.20;99.90
62555;DHT22;48610;52.144;8.624;2023-07-29T04:58:00;19.20;99.90
62555;DHT22;48610;52.144;8.624;2023-07-29T05:01:02;19.10;99.90
62555;DHT22;48610;52.144;8.624;2023-07-29T05:04:03;19.10;99.90
62555;DHT22;48610;52.144;8.624;2023-07-29T05:07:04;19.20;99.90
62555;DHT22;48610;52.144;8.624;2023-07-29T05:10:05;18.90;99.90
62555;DHT22;48610;52.144;8.624;2023-07-29T05:13:07;19.10;99.90
62555;DHT22;48610;52.144;8.624;2023-07-29T05:16:07;18.90;99.90
62555;DHT22;48610;52.144;8.624;2023-07-29T05:19:08;18.90;99.90
62555;DHT22;48610;52.144;8.624;2023-07-29T05:22:10;19.00;99.90
62555;DHT22;48610;52.144;8.624;2023-07-29T05:25:10;19.10;99.90
62555;DHT22;48610;52.144;8.624;2023-07-29T05:28:11;19.10;99.90
62555;DHT22;48610;52.144;8.624;2023-07-29T05:31:11;19.30;99.90
62555;DHT22;48610;52.144;8.624;2023-07-29T05:34:12;19.40;99.90
62555;DHT22;48610;52.144;8.624;2023-07-29T05:37:13;19.30;99.90
62555;DHT22;48610;52.144;8.624;2023-07-29T05:40:13;19.50;99.90
62555;DHT22;48610;52.144;8.624;2023-07-29T05:43:14;19.30;99.90
62555;DHT22;48610;52.144;8.624;2023-07-29T05:46:15;19.30;99.90
62555;DHT22;48610;52.144;8.624;2023-07-29T05:49:15;19.40;99.90
62555;DHT22;48610;52.144;8.624;2023-07-29T05:52:16;19.60;99.90
62555;DHT22;48610;52.144;8.624;2023-07-29T05:55:17;19.70;99.90
62555;DHT22;48610;52.144;8.624;2023-07-29T05:58:17;19.90;99.90
62555;DHT22;48610;52.144;8.624;2023-07-29T06:01:18;19.90;99.90
62555;DHT22;48610;52.144;8.624;2023-07-29T06:04:21;19.90;99.90
62555;DHT22;48610;52.144;8.624;2023-07-29T06:07:22;19.90;99.90
62555;DHT22;48610;52.144;8.624;2023-07-29T06:10:23;19.80;99.90
62555;DHT22;48610;52.144;8.624;2023-07-29T06:13:23;19.80;99.90
62555;DHT22;48610;52.144;8.624;2023-07-29T06:16:24;19.80;99.90
62555;DHT22;48610;52.144;8.624;2023-07-29T06:19:25;19.80;99.90
62555;DHT22;48610;52.144;8.624;2023-07-29T06:22:25;19.80;99.90
62555;DHT22;48610;52.144;8.624;2023-07-29T06:25:26;19.80;99.90
62555;DHT22;48610;52.144;8.624;2023-07-29T06:28:26;20.00;99.90
62555;DHT22;48610;52.144;8.624;2023-07-29T06:31:27;20.00;99.90
62555;DHT22;48610;52.144;8.624;2023-07-29T06:34:28;19.80;99.90
62555;DHT22;48610;52.144;8.624;2023-07-29T06:37:28;19.90;99.90
62555;DHT22;48610;52.144;8.624;2023-07-29T06:40:29;20.10;99.90
62555;DHT22;48610;52.144;8.624;2023-07-29T06:43:30;20.30;99.90
62555;DHT22;48610;52.144;8.624;2023-07-29T06:46:30;20.30;99.90
62555;DHT22;48610;52.144;8.624;2023-07-29T06:49:31;20.10;99.90
62555;DHT22;48610;52.144;8.624;2023-07-29T06:52:31;20.40;99.90
62555;DHT22;48610;52.144;8.624;2023-07-29T06:55:32;20.40;99.90
62555;DHT22;48610;52.144;8.624;2023-07-29T06:58:33;20.50;99.90
62555;DHT22;48610;52.144;8.624;2023-07-29T07:01:34;20.50;99.90
62555;DHT22;48610;52.144;8.624;2023-07-29T07:04:35;20.60;99.90
62555;DHT22;48610;52.144;8.624;2023-07-29T07:07:35;20.40;99.90
62555;DHT22;48610;52.144;8.624;2023-07-29T07:10:36;20.20;99.90
62555;DHT22;48610;52.144;8.624;2023-07-29T07:13:37;20.20;99.90
62555;DHT22;48610;52.144;8.624;2023-07-29T07:16:38;20.20;99.90
62555;DHT22;48610;52.144;8.624;2023-07-29T07:19:39;20.30;99.90
62555;DHT22;48610;52.144;8.624;2023-07-29T07:22:41;20.20;99.90
62555;DHT22;48610;52.144;8.624;2023-07-29T07:25:41;20.30;99.90
62555;DHT22;48610;52.144;8.624;2023-07-29T07:28:45;20.20;99.90
62555;DHT22;48610;52.144;8.624;2023-07-29T07:31:51;20.30;99.90
62555;DHT22;48610;52.144;8.624;2023-07-29T07:34:54;20.40;99.90
62555;DHT22;48610;52.144;8.624;2023-07-29T07:37:55;20.40;99.90
62555;DHT22;48610;52.144;8.624;2023-07-29T07:40:56;20.30;99.90
62555;DHT22;48610;52.144;8.624;2023-07-29T07:43:57;20.10;99.90
62555;DHT22;48610;52.144;8.624;2023-07-29T07:46:57;20.10;99.90
62555;DHT22;48610;52.144;8.624;2023-07-29T07:49:58;19.80;99.90
62555;DHT22;48610;52.144;8.624;2023-07-29T07:52:59;19.90;99.90
62555;DHT22;48610;52.144;8.624;2023-07-29T07:55:59;20.00;99.90
62555;DHT22;48610;52.144;8.624;2023-07-29T07:59:00;20.20;99.90
62555;DHT22;48610;52.144;8.624;2023-07-29T08:02:00;20.40;99.90
62555;DHT22;48610;52.144;8.624;2023-07-29T08:05:01;20.40;99.90
62555;DHT22;48610;52.144;8.624;2023-07-29T08:08:02;20.50;99.90
62555;DHT22;48610;52.144;8.624;2023-07-29T08:11:02;20.50;99.90
62555;DHT22;48610;52.144;8.624;2023-07-29T08:14:03;20.70;99.90
62555;DHT22;48610;52.144;8.624;2023-07-29T08:17:04;20.90;99.90
62555;DHT22;48610;52.144;8.624;2023-07-29T08:20:05;20.90;99.90
62555;DHT22;48610;52.144;8.624;2023-07-29T08:23:05;20.90;99.90
62555;DHT22;48610;52.144;8.624;2023-07-29T08:26:06;20.80;99.90
62555;DHT22;48610;52.144;8.624;2023-07-29T08:29:07;20.80;99.90
62555;DHT22;48610;52.144;8.624;2023-07-29T08:32:07;20.70;99.90
62555;DHT22;48610;52.144;8.624;2023-07-29T08:35:08;20.80;99.90
62555;DHT22;48610;52.144;8.624;2023-07-29T08:38:09;20.80;99.90
62555;DHT22;48610;52.144;8.624;2023-07-29T08:41:26;20.90;99.90
62555;DHT22;48610;52.144;8.624;2023-07-29T08:44:33;20.90;99.90
62555;DHT22;48610;52.144;8.624;2023-07-29T08:47:35;20.90;99.90
62555;DHT22;48610;52.144;8.624;2023-07-29T08:50:37;20.90;99.90
62555;DHT22;48610;52.144;8.624;2023-07-29T08:53:38;20.90;99.90
62555;DHT22;48610;52.144;8.624;2023-07-29T08:56:41;21.00;99.90
62555;DHT22;48610;52.144;8.624;2023-07-29T08:59:42;20.90;99.90
62555;DHT22;48610;52.144;8.624;2023-07-29T09:02:42;20.70;99.90
62555;DHT22;48610;52.144;8.624;2023-07-29T09:05:43;20.70;99.90
62555;DHT22;48610;52.144;8.624;2023-07-29T09:08:45;20.80;99.90
62555;DHT22;48610;52.144;8.624;2023-07-29T09:11:45;21.00;99.90
62555;DHT22;48610;52.144;8.624;2023-07-29T09:14:46;21.30;99.90
62555;DHT22;48610;52.144;8.624;2023-07-29T09:17:47;21.60;99.90
62555;DHT22;48610;52.144;8.624;2023-07-29T09:20:48;21.50;99.90
62555;DHT22;48610;52.144;8.624;2023-07-29T09:23:50;21.60;99.90
62555;DHT22;48610;52.144;8.624;2023-07-29T09:26:51;21.70;99.90
62555;DHT22;48610;52.144;8.624;2023-07-29T09:29:56;21.70;99.90
62555;DHT22;48610;52.144;8.624;2023-07-29T09:32:58;21.40;99.90
62555;DHT22;48610;52.144;8.624;2023-07-29T09:35:58;21.40;99.90
62555;DHT22;48610;52.144;8.624;2023-07-29T09:38:59;21.40;99.90
62555;DHT22;48610;52.144;8.624;2023-07-29T09:42:00;21.20;99.90
62555;DHT22;48610;52.144;8.624;2023-07-29T09:45:01;21.30;99.90
62555;DHT22;48610;52.144;8.624;2023-07-29T09:48:03;21.40;99.90
62555;DHT22;48610;52.144;8.624;2023-07-29T09:51:12;21.50;99.90
62555;DHT22;48610;52.144;8.624;2023-07-29T09:54:13;21.50;99.90
62555;DHT22;48610;52.144;8.624;2023-07-29T09:57:18;21.70;99.90
62555;DHT22;48610;52.144;8.624;2023-07-29T10:00:19;21.80;99.90
62555;DHT22;48610;52.144;8.624;2023-07-29T10:03:21;21.90;99.90
62555;DHT22;48610;52.144;8.624;2023-07-29T10:06:22;21.70;99.90
62555;DHT22;48610;52.144;8.624;2023-07-29T10:09:23;22.00;99.90
62555;DHT22;48610;52.144;8.624;2023-07-29T10:12:24;22.00;99.90
62555;DHT22;48610;52.144;8.624;2023-07-29T10:15:26;22.00;99.90
62555;DHT22;48610;52.144;8.624;2023-07-29T10:18:26;22.00;99.90
62555;DHT22;48610;52.144;8.624;2023-07-29T10:21:29;22.10;99.90
62555;DHT22;48610;52.144;8.624;2023-07-29T10:24:32;22.00;99.90
62555;DHT22;48610;52.144;8.624;2023-07-29T10:30:44;22.20;99.90
62555;DHT22;48610;52.144;8.624;2023-07-29T10:33:45;22.30;99.90
62555;DHT22;48610;52.144;8.624;2023-07-29T10:36:47;22.20;99.90
62555;DHT22;48610;52.144;8.624;2023-07-29T10:39:53;22.40;99.90
62555;DHT22;48610;52.144;8.624;2023-07-29T10:43:10;22.80;99.90
62555;DHT22;48610;52.144;8.624;2023-07-29T10:46:19;22.90;99.90
62555;DHT22;48610;52.144;8.624;2023-07-29T10:49:23;22.70;99.90
62555;DHT22;48610;52.144;8.624;2023-07-29T10:52:39;22.80;99.90
62555;DHT22;48610;52.144;8.624;2023-07-29T10:55:40;22.70;99.90
62555;DHT22;48610;52.144;8.624;2023-07-29T10:58:43;22.70;99.90
62555;DHT22;48610;52.144;8.624;2023-07-29T11:01:51;22.50;99.90
62555;DHT22;48610;52.144;8.624;2023-07-29T11:04:52;22.40;99.90
62555;DHT22;48610;52.144;8.624;2023-07-29T11:07:53;22.00;99.90
62555;DHT22;48610;52.144;8.624;2023-07-29T11:11:04;22.40;99.90
62555;DHT22;48610;52.144;8.624;2023-07-29T11:14:05;22.50;99.90
62555;DHT22;48610;52.144;8.624;2023-07-29T11:17:05;22.50;99.90
62555;DHT22;48610;52.144;8.624;2023-07-29T11:20:07;22.50;99.90
62555;DHT22;48610;52.144;8.624;2023-07-29T11:23:08;22.90;99.90
62555;DHT22;48610;52.144;8.624;2023-07-29T11:26:09;23.20;99.90
62555;DHT22;48610;52.144;8.624;2023-07-29T11:29:10;23.10;99.90
62555;DHT22;48610;52.144;8.624;2023-07-29T11:32:10;23.00;99.90
62555;DHT22;48610;52.144;8.624;2023-07-29T11:35:16;23.50;99.90
62555;DHT22;48610;52.144;8.624;2023-07-29T11:38:18;23.70;99.90
62555;DHT22;48610;52.144;8.624;2023-07-29T11:41:20;24.00;99.90
62555;DHT22;48610;52.144;8.624;2023-07-29T11:44:21;24.10;99.90
62555;DHT22;48610;52.144;8.624;2023-07-29T11:47:22;24.20;99.90
62555;DHT22;48610;52.144;8.624;2023-07-29T11:50:22;24.10;99.70
62555;DHT22;48610;52.144;8.624;2023-07-29T11:53:27;24.30;99.60
62555;DHT22;48610;52.144;8.624;2023-07-29T11:56:29;24.00;99.90
62555;DHT22;48610;52.144;8.624;2023-07-29T11:59:30;24.40;99.90
62555;DHT22;48610;52.144;8.624;2023-07-29T12:02:33;24.60;99.40
62555;DHT22;48610;52.144;8.624;2023-07-29T12:05:35;24.70;98.80
62555;DHT22;48610;52.144;8.624;2023-07-29T12:08:36;24.90;98.70
62555;DHT22;48610;52.144;8.624;2023-07-29T12:11:37;25.10;98.50
62555;DHT22;48610;52.144;8.624;2023-07-29T12:14:37;24.70;97.80
62555;DHT22;48610;52.144;8.624;2023-07-29T12:17:40;24.20;98.90
62555;DHT22;48610;52.144;8.624;2023-07-29T12:20:41;24.70;99.40
62555;DHT22;48610;52.144;8.624;2023-07-29T12:23:42;25.10;98.60
62555;DHT22;48610;52.144;8.624;2023-07-29T12:26:42;25.10;97.40
62555;DHT22;48610;52.144;8.624;2023-07-29T12:29:44;24.50;98.40
62555;DHT22;48610;52.144;8.624;2023-07-29T12:32:47;24.10;99.20
62555;DHT22;48610;52.144;8.624;2023-07-29T12:35:50;23.80;99.30
62555;DHT22;48610;52.144;8.624;2023-07-29T12:38:51;23.60;99.70
62555;DHT22;48610;52.144;8.624;2023-07-29T12:41:53;23.40;99.90
62555;DHT22;48610;52.144;8.624;2023-07-29T12:44:54;23.40;99.90
62555;DHT22;48610;52.144;8.624;2023-07-29T12:47:56;23.30;99.90
62555;DHT22;48610;52.144;8.624;2023-07-29T12:50:56;23.30;99.90
62555;DHT22;48610;52.144;8.624;2023-07-29T12:53:57;23.50;99.90
62555;DHT22;48610;52.144;8.624;2023-07-29T12:56:58;23.50;99.90
62555;DHT22;48610;52.144;8.624;2023-07-29T12:59:58;23.50;99.90
62555;DHT22;48610;52.144;8.624;2023-07-29T13:02:59;23.80;99.90
62555;DHT22;48610;52.144;8.624;2023-07-29T13:06:00;23.90;99.90
62555;DHT22;48610;52.144;8.624;2023-07-29T13:09:00;24.10;99.90
62555;DHT22;48610;52.144;8.624;2023-07-29T13:12:01;24.00;99.50
62555;DHT22;48610;52.144;8.624;2023-07-29T13:15:02;23.80;99.90
62555;DHT22;48610;52.144;8.624;2023-07-29T13:18:03;23.80;99.90
62555;DHT22;48610;52.144;8.624;2023-07-29T13:21:04;24.00;99.90
62555;DHT22;48610;52.144;8.624;2023-07-29T13:24:05;23.90;99.90
62555;DHT22;48610;52.144;8.624;2023-07-29T13:27:05;24.40;99.90
62555;DHT22;48610;52.144;8.624;2023-07-29T13:30:07;24.40;99.20
62555;DHT22;48610;52.144;8.624;2023-07-29T13:33:08;24.40;99.70
62555;DHT22;48610;52.144;8.624;2023-07-29T13:36:09;23.90;98.60
62555;DHT22;48610;52.144;8.624;2023-07-29T13:39:09;24.00;99.30
62555;DHT22;48610;52.144;8.624;2023-07-29T13:42:10;23.90;99.70
62555;DHT22;48610;52.144;8.624;2023-07-29T13:45:11;23.90;99.90
62555;DHT22;48610;52.144;8.624;2023-07-29T13:48:11;24.10;99.90
62555;DHT22;48610;52.144;8.624;2023-07-29T13:51:12;24.40;99.80
62555;DHT22;48610;52.144;8.624;2023-07-29T13:54:13;24.40;99.30
62555;DHT22;48610;52.144;8.624;2023-07-29T13:57:13;23.80;99.20
62555;DHT22;48610;52.144;8.624;2023-07-29T14:00:14;23.70;99.90
62555;DHT22;48610;52.144;8.624;2023-07-29T14:03:15;23.60;99.90
62555;DHT22;48610;52.144;8.624;2023-07-29T14:06:16;23.60;99.90
62555;DHT22;48610;52.144;8.624;2023-07-29T14:09:16;23.50;99.80
62555;DHT22;48610;52.144;8.624;2023-07-29T14:12:17;23.60;99.90
62555;DHT22;48610;52.144;8.624;2023-07-29T14:15:18;23.60;98.90
62555;DHT22;48610;52.144;8.624;2023-07-29T14:18:19;24.00;99.90
62555;DHT22;48610;52.144;8.624;2023-07-29T14:21:20;24.30;99.60
62555;DHT22;48610;52.144;8.624;2023-07-29T14:24:20;24.40;99.20
62555;DHT22;48610;52.144;8.624;2023-07-29T14:27:23;24.50;99.20
62555;DHT22;48610;52.144;8.624;2023-07-29T14:30:23;24.70;98.50
62555;DHT22;48610;52.144;8.624;2023-07-29T14:33:27;24.90;99.10
62555;DHT22;48610;52.144;8.624;2023-07-29T14:36:28;24.80;98.00
62555;DHT22;48610;52.144;8.624;2023-07-29T14:39:29;24.40;98.60
62555;DHT22;48610;52.144;8.624;2023-07-29T14:42:30;24.50;98.60
62555;DHT22;48610;52.144;8.624;2023-07-29T14:45:30;24.00;98.70
62555;DHT22;48610;52.144;8.624;2023-07-29T14:48:31;23.80;99.80
62555;DHT22;48610;52.144;8.624;2023-07-29T14:51:32;23.80;99.60
62555;DHT22;48610;52.144;8.624;2023-07-29T14:54:33;23.70;99.90
62555;DHT22;48610;52.144;8.624;2023-07-29T14:57:33;23.40;99.90
62555;DHT22;48610;52.144;8.624;2023-07-29T15:00:34;23.50;99.90
62555;DHT22;48610;52.144;8.624;2023-07-29T15:03:35;23.50;99.90
62555;DHT22;48610;52.144;8.624;2023-07-29T15:06:36;23.60;99.90
62555;DHT22;48610;52.144;8.624;2023-07-29T15:09:36;23.60;99.90
62555;DHT22;48610;52.144;8.624;2023-07-29T15:12:37;23.50;99.90
62555;DHT22;48610;52.144;8.624;2023-07-29T15:15:42;23.40;99.90
62555;DHT22;48610;52.144;8.624;2023-07-29T15:18:43;23.30;99.90
62555;DHT22;48610;52.144;8.624;2023-07-29T15:21:43;23.10;99.90
62555;DHT22;48610;52.144;8.624;2023-07-29T15:24:44;23.00;99.90
62555;DHT22;48610;52.144;8.624;2023-07-29T15:27:45;21.70;99.90
62555;DHT22;48610;52.144;8.624;2023-07-29T15:30:46;20.70;99.90
62555;DHT22;48610;52.144;8.624;2023-07-29T15:33:46;19.70;99.90
62555;DHT22;48610;52.144;8.624;2023-07-29T15:36:48;19.00;99.90
62555;DHT22;48610;52.144;8.624;2023-07-29T15:39:48;19.10;99.90
62555;DHT22;48610;52.144;8.624;2023-07-29T15:42:49;19.40;99.90
62555;DHT22;48610;52.144;8.624;2023-07-29T15:45:50;19.70;99.90
62555;DHT22;48610;52.144;8.624;2023-07-29T15:48:50;20.00;99.90
62555;DHT22;48610;52.144;8.624;2023-07-29T15:51:51;19.90;99.90
62555;DHT22;48610;52.144;8.624;2023-07-29T15:54:52;20.10;99.90
62555;DHT22;48610;52.144;8.624;2023-07-29T15:57:52;20.30;99.90
62555;DHT22;48610;52.144;8.624;2023-07-29T16:00:53;20.30;99.90
62555;DHT22;48610;52.144;8.624;2023-07-29T16:03:54;20.20;99.90
62555;DHT22;48610;52.144;8.624;2023-07-29T16:06:55;20.10;99.90
62555;DHT22;48610;52.144;8.624;2023-07-29T16:09:56;20.10;99.90
62555;DHT22;48610;52.144;8.624;2023-07-29T16:12:56;19.90;99.90
62555;DHT22;48610;52.144;8.624;2023-07-29T16:15:57;19.70;99.90
62555;DHT22;48610;52.144;8.624;2023-07-29T16:18:58;19.60;99.90
62555;DHT22;48610;52.144;8.624;2023-07-29T16:21:59;19.50;99.90
62555;DHT22;48610;52.144;8.624;2023-07-29T16:25:01;19.50;99.90
62555;DHT22;48610;52.144;8.624;2023-07-29T16:28:02;19.60;99.90
62555;DHT22;48610;52.144;8.624;2023-07-29T16:31:02;19.70;99.90
62555;DHT22;48610;52.144;8.624;2023-07-29T16:34:03;19.70;99.90
62555;DHT22;48610;52.144;8.624;2023-07-29T16:37:07;19.80;99.90
62555;DHT22;48610;52.144;8.624;2023-07-29T16:40:08;20.00;99.90
62555;DHT22;48610;52.144;8.624;2023-07-29T16:43:10;20.20;99.90
62555;DHT22;48610;52.144;8.624;2023-07-29T16:46:10;20.30;99.90
62555;DHT22;48610;52.144;8.624;2023-07-29T16:49:11;20.20;99.90
62555;DHT22;48610;52.144;8.624;2023-07-29T16:52:12;20.30;99.90
62555;DHT22;48610;52.144;8.624;2023-07-29T16:55:13;20.30;99.90
62555;DHT22;48610;52.144;8.624;2023-07-29T16:58:14;20.60;99.90
62555;DHT22;48610;52.144;8.624;2023-07-29T17:01:15;20.20;99.90
62555;DHT22;48610;52.144;8.624;2023-07-29T17:04:16;20.10;99.90
62555;DHT22;48610;52.144;8.624;2023-07-29T17:07:16;19.90;99.90
62555;DHT22;48610;52.144;8.624;2023-07-29T17:10:17;20.00;99.90
62555;DHT22;48610;52.144;8.624;2023-07-29T17:13:18;19.90;99.90
62555;DHT22;48610;52.144;8.624;2023-07-29T17:16:19;19.90;99.90
62555;DHT22;48610;52.144;8.624;2023-07-29T17:19:20;19.80;99.90
62555;DHT22;48610;52.144;8.624;2023-07-29T17:22:20;20.00;99.90
62555;DHT22;48610;52.144;8.624;2023-07-29T17:25:21;20.10;99.90
62555;DHT22;48610;52.144;8.624;2023-07-29T17:28:23;20.00;99.90
62555;DHT22;48610;52.144;8.624;2023-07-29T17:31:24;19.90;99.90
62555;DHT22;48610;52.144;8.624;2023-07-29T17:34:24;19.80;99.90
62555;DHT22;48610;52.144;8.624;2023-07-29T17:37:25;20.00;99.90
62555;DHT22;48610;52.144;8.624;2023-07-29T17:40:26;20.00;99.90
62555;DHT22;48610;52.144;8.624;2023-07-29T17:43:26;20.30;99.90
62555;DHT22;48610;52.144;8.624;2023-07-29T17:46:28;20.30;99.90
62555;DHT22;48610;52.144;8.624;2023-07-29T17:49:29;20.00;99.90
62555;DHT22;48610;52.144;8.624;2023-07-29T17:52:30;20.30;99.90
62555;DHT22;48610;52.144;8.624;2023-07-29T17:55:30;20.20;99.90
62555;DHT22;48610;52.144;8.624;2023-07-29T17:58:36;20.10;99.90
62555;DHT22;48610;52.144;8.624;2023-07-29T18:01:36;20.20;99.90
62555;DHT22;48610;52.144;8.624;2023-07-29T18:04:37;20.10;99.90
62555;DHT22;48610;52.144;8.624;2023-07-29T18:07:38;20.10;99.90
62555;DHT22;48610;52.144;8.624;2023-07-29T18:10:42;19.90;99.90
62555;DHT22;48610;52.144;8.624;2023-07-29T18:13:44;19.90;99.90
62555;DHT22;48610;52.144;8.624;2023-07-29T18:16:44;20.20;99.90
62555;DHT22;48610;52.144;8.624;2023-07-29T18:19:45;19.80;99.90
62555;DHT22;48610;52.144;8.624;2023-07-29T18:22:46;19.60;99.90
62555;DHT22;48610;52.144;8.624;2023-07-29T18:25:48;19.70;99.90
62555;DHT22;48610;52.144;8.624;2023-07-29T18:28:53;19.80;99.90
62555;DHT22;48610;52.144;8.624;2023-07-29T18:31:53;19.80;99.90
62555;DHT22;48610;52.144;8.624;2023-07-29T18:34:54;19.80;99.90
62555;DHT22;48610;52.144;8.624;2023-07-29T18:37:55;19.70;99.90
62555;DHT22;48610;52.144;8.624;2023-07-29T18:40:58;19.70;99.90
62555;DHT22;48610;52.144;8.624;2023-07-29T18:43:58;19.70;99.90
62555;DHT22;48610;52.144;8.624;2023-07-29T18:46:59;19.60;99.90
62555;DHT22;48610;52.144;8.624;2023-07-29T18:50:00;19.60;99.90
62555;DHT22;48610;52.144;8.624;2023-07-29T18:53:00;19.40;99.90
62555;DHT22;48610;52.144;8.624;2023-07-29T18:56:01;19.30;99.90
62555;DHT22;48610;52.144;8.624;2023-07-29T18:59:02;19.20;99.90
62555;DHT22;48610;52.144;8.624;2023-07-29T19:02:02;19.20;99.90
62555;DHT22;48610;52.144;8.624;2023-07-29T19:05:03;19.30;99.90
62555;DHT22;48610;52.144;8.624;2023-07-29T19:08:05;19.10;99.90
62555;DHT22;48610;52.144;8.624;2023-07-29T19:11:08;19.10;99.90